createdAt,value
2018-04-01T00:00:51.234Z,99.90
2018-04-01T00:03:18.223Z,99.90
2018-04-01T00:05:45.204Z,99.90
2018-04-01T00:08:12.186Z,99.90
2018-04-01T00:10:39.927Z,99.90
2018-04-01T00:13:06.910Z,99.90
2018-04-01T00:15:33.894Z,99.90
2018-04-01T00:18:00.886Z,99.90
2018-04-01T00:20:28.636Z,99.90
2018-04-01T00:22:55.630Z,99.90
2018-04-01T00:25:22.606Z,99.90
2018-04-01T00:27:49.591Z,99.90
2018-04-01T00:30:17.331Z,99.90
2018-04-01T00:32:44.330Z,99.90
2018-04-01T00:35:11.310Z,99.90
2018-04-01T00:37:38.307Z,99.90
2018-04-01T00:40:06.038Z,99.90
2018-04-01T00:42:33.031Z,99.90
2018-04-01T00:45:00.014Z,99.90
2018-04-01T00:47:27.007Z,99.90
2018-04-01T00:49:53.991Z,99.90
2018-04-01T00:52:20.974Z,99.90
2018-04-01T00:54:48.722Z,99.90
2018-04-01T00:57:15.725Z,99.90
2018-04-01T00:59:42.702Z,99.90
2018-04-01T01:02:09.690Z,99.90
2018-04-01T01:04:37.443Z,99.90
2018-04-01T01:07:05.185Z,99.90
2018-04-01T01:09:32.184Z,99.90
2018-04-01T01:11:59.162Z,99.90
2018-04-01T01:14:26.160Z,99.90
2018-04-01T01:16:53.903Z,99.90
2018-04-01T01:19:20.899Z,99.90
2018-04-01T01:21:47.887Z,99.90
2018-04-01T01:24:14.876Z,99.90
2018-04-01T01:26:41.863Z,99.90
2018-04-01T01:29:08.851Z,99.90
2018-04-01T01:31:36.601Z,99.90
2018-04-01T01:34:03.584Z,99.90
2018-04-01T01:36:30.558Z,99.90
2018-04-01T01:38:57.556Z,99.90
2018-04-01T01:41:24.539Z,99.90
2018-04-01T01:43:51.530Z,99.90
2018-04-01T01:46:19.283Z,99.90
2018-04-01T01:48:46.288Z,99.90
2018-04-01T01:51:13.280Z,99.90
2018-04-01T01:53:40.266Z,99.90
2018-04-01T01:56:07.255Z,99.90
2018-04-01T01:58:34.252Z,99.90
2018-04-01T02:01:01.227Z,99.90
2018-04-01T02:03:28.230Z,99.90
2018-04-01T02:05:55.980Z,99.90
2018-04-01T02:08:23.739Z,99.90
2018-04-01T02:10:50.723Z,99.90
2018-04-01T02:13:17.716Z,99.90
2018-04-01T02:15:44.698Z,99.90
2018-04-01T02:18:11.688Z,99.90
2018-04-01T02:20:38.672Z,99.90
2018-04-01T02:23:06.430Z,99.90
2018-04-01T02:25:34.183Z,99.90
2018-04-01T02:28:01.174Z,99.90
2018-04-01T02:30:28.169Z,99.90
2018-04-01T02:32:55.154Z,99.90
2018-04-01T02:35:22.134Z,99.90
2018-04-01T02:37:49.123Z,99.90
2018-04-01T02:40:16.108Z,99.90
2018-04-01T02:42:43.099Z,99.90
2018-04-01T02:45:10.077Z,99.90
2018-04-01T02:47:37.844Z,99.90
2018-04-01T02:50:05.584Z,99.90
2018-04-01T02:52:32.562Z,99.90
2018-04-01T02:54:59.560Z,99.90
2018-04-01T02:57:26.538Z,99.90
2018-04-01T02:59:54.300Z,99.90
2018-04-01T03:02:22.045Z,99.90
2018-04-01T03:04:49.035Z,99.90
2018-04-01T03:07:16.011Z,99.90
2018-04-01T03:09:43.001Z,99.90
2018-04-01T03:12:10.739Z,99.90
2018-04-01T03:14:37.718Z,99.90
2018-04-01T03:17:05.467Z,99.90
2018-04-01T03:19:32.450Z,99.90
2018-04-01T03:21:59.444Z,99.90
2018-04-01T03:24:26.435Z,99.90
2018-04-01T03:26:53.414Z,99.90
2018-04-01T03:29:20.399Z,99.90
2018-04-01T03:31:48.149Z,99.90
2018-04-01T03:34:15.127Z,99.90
2018-04-01T03:36:44.921Z,99.90
2018-04-01T03:39:12.683Z,99.90
2018-04-01T03:41:40.427Z,99.90
2018-04-01T03:44:07.420Z,99.90
2018-04-01T03:46:36.344Z,99.90
2018-04-01T03:49:03.335Z,99.90
2018-04-01T03:51:31.087Z,99.90
2018-04-01T03:53:58.074Z,99.90
2018-04-01T03:56:25.055Z,99.90
2018-04-01T03:58:52.051Z,99.90
2018-04-01T04:01:19.036Z,99.90
2018-04-01T04:06:46.575Z,99.90
2018-04-01T04:09:14.322Z,99.90
2018-04-01T04:11:42.070Z,99.90
2018-04-01T04:14:09.055Z,99.90
2018-04-01T04:16:49.038Z,99.90
2018-04-01T04:19:16.033Z,99.90
2018-04-01T04:21:43.771Z,99.90
2018-04-01T04:24:12.480Z,99.90
2018-04-01T04:26:40.230Z,99.90
2018-04-01T04:29:07.222Z,99.90
2018-04-01T04:31:34.203Z,99.90
2018-04-01T04:34:01.198Z,99.90
2018-04-01T04:36:28.209Z,99.90
2018-04-01T04:38:55.159Z,99.90
2018-04-01T04:41:22.134Z,99.90
2018-04-01T04:43:49.114Z,99.90
2018-04-01T04:46:16.102Z,99.90
2018-04-01T04:48:43.857Z,99.90
2018-04-01T04:51:10.831Z,99.90
2018-04-01T04:53:37.811Z,99.90
2018-04-01T04:56:04.787Z,99.90
2018-04-01T04:58:31.792Z,99.90
2018-04-01T05:00:58.771Z,99.90
2018-04-01T05:03:25.766Z,99.90
2018-04-01T05:05:52.765Z,99.90
2018-04-01T05:08:19.764Z,99.90
2018-04-01T05:10:46.750Z,99.90
2018-04-01T05:13:13.743Z,99.90
2018-04-01T05:15:41.496Z,99.90
2018-04-01T05:18:09.232Z,99.90
2018-04-01T05:20:36.226Z,99.90
2018-04-01T05:23:03.203Z,99.90
2018-04-01T05:25:30.191Z,99.90
2018-04-01T05:27:57.935Z,99.90
2018-04-01T05:30:24.927Z,99.90
2018-04-01T05:32:51.907Z,99.90
2018-04-01T05:35:18.903Z,99.90
2018-04-01T05:37:46.654Z,99.90
2018-04-01T05:40:14.426Z,99.90
2018-04-01T05:42:42.170Z,99.90
2018-04-01T05:45:09.167Z,99.90
2018-04-01T05:47:36.131Z,99.90
2018-04-01T05:50:03.128Z,99.90
2018-04-01T05:52:30.870Z,99.90
2018-04-01T05:54:57.855Z,99.90
2018-04-01T05:57:24.843Z,99.90
2018-04-01T05:59:51.839Z,99.90
2018-04-01T06:02:19.584Z,99.90
2018-04-01T06:04:47.339Z,99.90
2018-04-01T06:07:14.322Z,99.90
2018-04-01T06:09:41.310Z,99.90
2018-04-01T06:12:08.304Z,99.20
2018-04-01T06:14:35.295Z,98.40
2018-04-01T06:17:02.269Z,94.40
2018-04-01T06:19:29.279Z,93.40
2018-04-01T06:22:06.658Z,94.70
2018-04-01T06:24:33.646Z,94.10
2018-04-01T06:27:00.619Z,94.30
2018-04-01T06:29:27.604Z,94.20
2018-04-01T06:32:01.721Z,92.70
2018-04-01T06:34:30.613Z,90.80
2018-04-01T06:36:59.488Z,90.10
2018-04-01T06:39:26.475Z,89.30
2018-04-01T06:41:53.451Z,90.50
2018-04-01T06:44:21.204Z,84.40
2018-04-01T06:46:48.951Z,76.00
2018-04-01T06:49:30.315Z,76.10
2018-04-01T06:51:57.295Z,76.70
2018-04-01T06:54:25.052Z,60.00
2018-04-01T06:57:16.680Z,60.60
2018-04-01T06:59:44.430Z,63.80
2018-04-01T07:02:25.278Z,63.70
2018-04-01T07:04:52.253Z,62.80
2018-04-01T07:07:19.231Z,63.10
2018-04-01T07:09:46.218Z,60.60
2018-04-01T07:12:13.237Z,59.80
2018-04-01T07:14:40.215Z,58.70
2018-04-01T07:17:07.189Z,60.60
2018-04-01T07:19:34.175Z,47.90
2018-04-01T07:22:01.142Z,49.60
2018-04-01T07:24:28.126Z,46.30
2018-04-01T07:26:55.871Z,30.90
2018-04-01T07:29:24.846Z,30.70
2018-04-01T07:31:52.825Z,24.60
2018-04-01T07:34:19.814Z,26.60
2018-04-01T07:36:47.552Z,24.60
2018-04-01T07:39:14.527Z,24.70
2018-04-01T07:41:41.499Z,27.10
2018-04-01T07:44:08.490Z,24.50
2018-04-01T07:46:41.127Z,24.90
2018-04-01T07:49:22.644Z,24.20
2018-04-01T07:51:49.619Z,24.40
2018-04-01T07:54:17.927Z,24.60
2018-04-01T07:56:44.886Z,24.60
2018-04-01T07:59:11.873Z,23.80
2018-04-01T08:01:38.842Z,22.90
2018-04-01T08:04:27.989Z,19.50
2018-04-01T08:07:07.987Z,19.50
2018-04-01T08:09:34.962Z,22.60
2018-04-01T08:12:01.935Z,23.20
2018-04-01T08:14:29.048Z,22.70
2018-04-01T08:16:56.012Z,22.70
2018-04-01T08:19:23.140Z,25.30
2018-04-01T08:21:51.056Z,25.90
2018-04-01T08:24:19.398Z,27.50
2018-04-01T08:26:46.391Z,27.40
2018-04-01T08:29:16.890Z,25.80
2018-04-01T08:35:01.272Z,25.70
2018-04-01T08:37:29.830Z,27.00
2018-04-01T08:40:03.520Z,26.80
2018-04-01T08:42:30.486Z,28.00
2018-04-01T08:45:00.995Z,29.30
2018-04-01T08:47:28.417Z,27.40
2018-04-01T08:49:55.464Z,25.80
2018-04-01T08:52:25.787Z,27.20
2018-04-01T08:54:52.774Z,26.60
2018-04-01T08:57:19.744Z,28.70
2018-04-01T08:59:46.739Z,27.70
2018-04-01T09:02:13.714Z,26.60
2018-04-01T09:04:40.693Z,26.90
2018-04-01T09:07:11.362Z,31.20
2018-04-01T09:09:45.015Z,31.00
2018-04-01T09:12:12.944Z,31.60
2018-04-01T09:14:39.927Z,32.50
2018-04-01T09:17:06.907Z,28.90
2018-04-01T09:19:33.898Z,28.50
2018-04-01T09:22:00.866Z,28.30
2018-04-01T09:24:27.886Z,27.40
2018-04-01T09:26:54.857Z,26.50
2018-04-01T09:29:21.822Z,27.20
2018-04-01T09:31:55.375Z,24.80
2018-04-01T09:34:24.255Z,24.50
2018-04-01T09:36:51.255Z,23.30
2018-04-01T09:42:20.627Z,23.00
2018-04-01T09:44:47.615Z,22.60
2018-04-01T09:47:32.779Z,21.20
2018-04-01T09:49:59.789Z,21.40
2018-04-01T09:52:46.562Z,22.50
2018-04-01T09:55:13.542Z,19.20
2018-04-01T09:57:49.287Z,20.10
2018-04-01T10:00:25.746Z,20.70
2018-04-01T10:03:11.657Z,20.90
2018-04-01T10:11:33.159Z,20.70
2018-04-01T10:17:00.466Z,22.20
2018-04-01T10:19:27.932Z,22.10
2018-04-01T10:22:00.086Z,22.80
2018-04-01T10:24:33.040Z,24.00
2018-04-01T10:27:02.051Z,21.40
2018-04-01T10:29:29.510Z,21.40
2018-04-01T10:31:56.986Z,20.70
2018-04-01T10:37:31.565Z,19.00
2018-04-01T10:45:49.814Z,17.10
2018-04-01T10:51:12.902Z,14.10
2018-04-01T10:53:40.370Z,13.90
2018-04-01T10:56:07.347Z,14.10
2018-04-01T10:58:35.095Z,15.50
2018-04-01T11:01:02.130Z,15.30
2018-04-01T11:03:54.694Z,13.60
2018-04-01T11:06:22.620Z,12.60
2018-04-01T11:08:49.603Z,14.00
2018-04-01T11:11:16.575Z,12.70
2018-04-01T11:16:51.170Z,6.70
2018-04-01T11:19:18.150Z,6.50
2018-04-01T11:21:45.895Z,9.60
2018-04-01T11:24:27.568Z,9.20
2018-04-01T11:26:54.558Z,9.40
2018-04-01T11:29:22.319Z,8.80
2018-04-01T11:31:50.079Z,8.30
2018-04-01T11:37:14.222Z,7.60
2018-04-01T11:39:41.203Z,7.90
2018-04-01T11:42:19.904Z,10.20
2018-04-01T11:44:52.782Z,10.40
2018-04-01T11:47:23.814Z,10.00
2018-04-01T11:50:01.418Z,10.40
2018-04-01T11:52:28.791Z,9.70
2018-04-01T11:54:55.786Z,9.60
2018-04-01T11:57:22.754Z,11.10
2018-04-01T11:59:49.738Z,8.80
2018-04-01T12:02:16.714Z,7.90
2018-04-01T12:04:43.719Z,7.10
2018-04-01T12:07:10.708Z,10.00
2018-04-01T12:09:38.448Z,9.90
2018-04-01T12:12:08.615Z,9.90
2018-04-01T12:14:35.591Z,10.10
2018-04-01T12:17:02.582Z,9.10
2018-04-01T12:19:29.567Z,11.50
2018-04-01T12:21:56.542Z,11.70
2018-04-01T12:24:23.526Z,8.70
2018-04-01T12:26:53.468Z,6.60
2018-04-01T12:29:20.459Z,6.00
2018-04-01T12:31:47.422Z,5.30
2018-04-01T12:34:14.387Z,2.20
2018-04-01T12:36:41.370Z,3.20
2018-04-01T12:39:08.343Z,1.50
2018-04-01T12:41:35.318Z,1.00
2018-04-01T12:44:02.310Z,1.40
2018-04-01T12:46:29.295Z,2.10
2018-04-01T12:48:57.034Z,2.40
2018-04-01T12:51:24.016Z,2.20
2018-04-01T12:53:55.390Z,3.80
2018-04-01T12:56:22.371Z,1.90
2018-04-01T12:58:49.340Z,1.60
2018-04-01T13:01:17.087Z,1.80
2018-04-01T13:03:44.095Z,1.60
2018-04-01T13:06:37.299Z,3.00
2018-04-01T13:09:05.031Z,1.00
2018-04-01T13:11:32.016Z,1.00
2018-04-01T13:13:59.763Z,1.40
2018-04-01T13:16:26.738Z,1.00
2018-04-01T13:18:53.710Z,1.00
2018-04-01T13:21:20.691Z,1.00
2018-04-01T13:23:47.678Z,1.00
2018-04-01T13:26:14.665Z,1.00
2018-04-01T13:28:41.630Z,1.00
2018-04-01T13:31:08.613Z,1.00
2018-04-01T13:33:36.347Z,1.00
2018-04-01T13:36:03.311Z,1.00
2018-04-01T13:38:31.047Z,1.00
2018-04-01T13:40:58.023Z,1.00
2018-04-01T13:43:25.746Z,1.00
2018-04-01T13:45:52.864Z,1.00
2018-04-01T13:48:19.819Z,1.00
2018-04-01T13:50:46.799Z,1.00
2018-04-01T13:53:13.770Z,1.00
2018-04-01T13:55:41.506Z,1.00
2018-04-01T13:58:08.482Z,1.00
2018-04-01T14:00:36.246Z,1.00
2018-04-01T14:03:03.966Z,1.00
2018-04-01T14:05:30.942Z,1.00
2018-04-01T14:07:58.690Z,1.00
2018-04-01T14:10:25.667Z,1.00
2018-04-01T14:12:53.402Z,1.00
2018-04-01T14:15:20.382Z,1.00
2018-04-01T14:17:55.747Z,1.00
2018-04-01T14:20:22.739Z,1.00
2018-04-01T14:22:49.702Z,1.00
2018-04-01T14:25:18.446Z,1.00
2018-04-01T14:27:45.463Z,1.00
2018-04-01T14:30:12.436Z,1.00
2018-04-01T14:32:39.398Z,1.00
2018-04-01T14:35:06.387Z,1.00
2018-04-01T14:37:33.358Z,1.00
2018-04-01T14:40:00.354Z,1.00
2018-04-01T14:42:28.095Z,1.00
2018-04-01T14:44:55.091Z,1.00
2018-04-01T14:47:22.059Z,1.00
2018-04-01T14:49:49.039Z,1.00
2018-04-01T14:52:16.011Z,1.00
2018-04-01T14:54:43.762Z,1.00
2018-04-01T14:57:10.735Z,1.00
2018-04-01T14:59:37.719Z,1.00
2018-04-01T15:02:04.711Z,1.00
2018-04-01T15:04:32.442Z,1.00
2018-04-01T15:06:59.422Z,1.00
2018-04-01T15:09:27.152Z,1.00
2018-04-01T15:11:54.126Z,1.00
2018-04-01T15:14:21.927Z,1.00
2018-04-01T15:16:48.844Z,1.00
2018-04-01T15:19:17.386Z,1.00
2018-04-01T15:21:44.367Z,1.00
2018-04-01T15:24:12.114Z,1.00
2018-04-01T15:26:39.085Z,1.00
2018-04-01T15:29:06.819Z,1.00
2018-04-01T15:31:33.794Z,1.00
2018-04-01T15:34:00.766Z,1.00
2018-04-01T15:36:27.739Z,1.00
2018-04-01T15:38:54.712Z,1.00
2018-04-01T15:41:22.471Z,1.00
2018-04-01T15:43:49.444Z,1.00
2018-04-01T15:46:16.422Z,1.00
2018-04-01T15:48:43.391Z,1.00
2018-04-01T15:51:10.379Z,1.00
2018-04-01T15:53:38.111Z,1.00
2018-04-01T15:56:05.076Z,1.00
2018-04-01T15:58:32.822Z,1.00
2018-04-01T16:00:59.796Z,1.00
2018-04-01T16:03:27.534Z,1.00
2018-04-01T16:05:54.499Z,1.00
2018-04-01T16:08:22.243Z,1.00
2018-04-01T16:10:49.214Z,1.00
2018-04-01T16:13:16.962Z,1.00
2018-04-01T16:15:44.691Z,1.00
2018-04-01T16:18:11.671Z,1.00
2018-04-01T16:20:38.633Z,1.00
2018-04-01T16:23:06.371Z,2.30
2018-04-01T16:25:33.336Z,2.60
2018-04-01T16:28:01.071Z,2.60
2018-04-01T16:30:28.044Z,2.50
2018-04-01T16:32:55.784Z,4.00
2018-04-01T16:35:22.756Z,4.30
2018-04-01T16:37:50.495Z,4.30
2018-04-01T16:40:17.459Z,4.00
2018-04-01T16:42:45.199Z,4.70
2018-04-01T16:45:12.166Z,4.60
2018-04-01T16:47:39.912Z,5.00
2018-04-01T16:50:06.883Z,4.90
2018-04-01T16:52:34.631Z,3.50
2018-04-01T16:55:01.589Z,4.10
2018-04-01T16:57:29.338Z,3.20
2018-04-01T16:59:56.303Z,3.40
2018-04-01T17:02:24.042Z,3.80
2018-04-01T17:04:51.002Z,3.70
2018-04-01T17:07:18.751Z,2.20
2018-04-01T17:09:45.719Z,2.30
2018-04-01T17:12:13.454Z,3.30
2018-04-01T17:14:40.427Z,3.50
2018-04-01T17:17:08.154Z,3.80
2018-04-01T17:19:55.524Z,3.60
2018-04-01T17:22:41.468Z,3.50
2018-04-01T17:25:08.439Z,2.60
2018-04-01T17:27:36.183Z,5.20
2018-04-01T17:30:03.156Z,5.10
2018-04-01T17:32:54.862Z,5.00
2018-04-01T17:35:38.866Z,5.00
2018-04-01T17:38:05.848Z,6.60
2018-04-01T17:40:34.804Z,6.20
2018-04-01T17:43:01.774Z,5.90
2018-04-01T17:48:22.816Z,7.40
2018-04-01T17:50:49.779Z,7.50
2018-04-01T17:53:17.519Z,8.00
2018-04-01T17:55:44.487Z,7.80
2018-04-01T17:58:11.486Z,7.90
2018-04-01T18:00:38.427Z,8.10
2018-04-01T18:03:05.399Z,9.80
2018-04-01T18:05:32.371Z,10.70
2018-04-01T18:08:00.119Z,13.30
2018-04-01T18:10:27.087Z,12.30
2018-04-01T18:12:54.824Z,15.50
2018-04-01T18:15:21.799Z,15.90
2018-04-01T18:17:49.547Z,16.90
2018-04-01T18:20:16.528Z,17.60
2018-04-01T18:22:43.508Z,17.50
2018-04-01T18:25:10.480Z,19.20
2018-04-01T18:27:37.450Z,21.80
2018-04-01T18:30:04.424Z,23.00
2018-04-01T18:32:31.399Z,24.50
2018-04-01T18:34:58.376Z,24.80
2018-04-01T18:37:26.131Z,28.50
2018-04-01T18:39:53.863Z,31.10
2018-04-01T18:42:20.848Z,31.20
2018-04-01T18:44:48.592Z,42.90
2018-04-01T18:47:15.575Z,43.30
2018-04-01T18:49:42.551Z,42.80
2018-04-01T18:52:09.533Z,44.40
2018-04-01T18:54:36.496Z,43.00
2018-04-01T18:57:03.485Z,43.20
2018-04-01T18:59:30.454Z,42.90
2018-04-01T19:01:57.431Z,42.30
2018-04-01T19:04:25.160Z,39.50
2018-04-01T19:06:52.143Z,39.20
2018-04-01T19:09:19.881Z,38.90
2018-04-01T19:11:46.852Z,39.10
2018-04-01T19:14:14.592Z,36.00
2018-04-01T19:19:43.895Z,35.10
2018-04-01T19:22:14.725Z,33.00
2018-04-01T19:24:42.192Z,34.40
2018-04-01T19:27:09.659Z,33.10
2018-04-01T19:29:37.119Z,33.20
2018-04-01T19:32:04.578Z,33.30
2018-04-01T19:34:32.050Z,31.30
2018-04-01T19:37:00.280Z,32.30
2018-04-01T19:39:27.743Z,32.50
2018-04-01T19:41:55.199Z,32.00
2018-04-01T19:44:22.671Z,32.00
2018-04-01T19:46:50.134Z,32.60
2018-04-01T19:49:17.609Z,32.70
2018-04-01T19:51:45.839Z,33.00
2018-04-01T19:54:13.331Z,32.80
2018-04-01T19:56:40.778Z,33.30
2018-04-01T19:59:08.257Z,32.70
2018-04-01T20:01:35.702Z,33.20
2018-04-01T20:04:03.171Z,33.70
2018-04-01T20:06:31.398Z,33.60
2018-04-01T20:08:58.872Z,33.90
2018-04-01T20:11:26.329Z,34.30
2018-04-01T20:13:53.818Z,32.70
2018-04-01T20:16:21.277Z,34.00
2018-04-01T20:18:49.512Z,32.40
2018-04-01T20:21:16.967Z,33.00
2018-04-01T20:23:44.442Z,33.90
2018-04-01T20:26:11.899Z,34.30
2018-04-01T20:28:39.366Z,34.90
2018-04-01T20:31:06.831Z,35.10
2018-04-01T20:33:35.076Z,34.60
2018-04-01T20:36:02.534Z,35.40
2018-04-01T20:38:30.002Z,36.00
2018-04-01T20:40:57.462Z,36.90
2018-04-01T20:43:24.935Z,35.30
2018-04-01T20:45:53.171Z,36.70
2018-04-01T20:48:20.643Z,36.40
2018-04-01T20:50:51.518Z,36.50
2018-04-01T20:53:19.754Z,37.00
2018-04-01T20:55:47.219Z,37.10
2018-04-01T20:58:14.690Z,34.30
2018-04-01T21:00:42.918Z,35.50
2018-04-01T21:03:10.383Z,35.90
2018-04-01T21:05:37.851Z,35.30
2018-04-01T21:08:05.323Z,35.20
2018-04-01T21:10:32.792Z,36.20
2018-04-01T21:13:00.258Z,35.70
2018-04-01T21:15:28.483Z,36.50
2018-04-01T21:17:55.955Z,36.60
2018-04-01T21:20:23.416Z,36.20
2018-04-01T21:22:50.882Z,36.80
2018-04-01T21:25:18.344Z,37.70
2018-04-01T21:27:45.818Z,37.10
2018-04-01T21:30:14.039Z,37.40
2018-04-01T21:32:41.514Z,38.80
2018-04-01T21:35:08.975Z,38.20
2018-04-01T21:37:36.439Z,37.90
2018-04-01T21:40:03.908Z,38.30
2018-04-01T21:42:31.358Z,38.00
2018-04-01T21:44:58.832Z,37.90
2018-04-01T21:47:27.058Z,37.90
2018-04-01T21:49:54.528Z,38.20
2018-04-01T21:52:21.983Z,36.30
2018-04-01T21:54:49.458Z,36.60
2018-04-01T22:00:13.914Z,36.50
2018-04-01T22:02:45.579Z,37.60
2018-04-01T22:05:15.805Z,38.70
2018-04-01T22:07:43.255Z,38.30
2018-04-01T22:19:02.824Z,36.40
2018-04-01T22:21:46.860Z,37.90
2018-04-01T22:24:20.183Z,38.10
2018-04-01T22:26:55.539Z,37.70
2018-04-01T22:29:23.778Z,39.00
2018-04-01T22:31:51.239Z,38.90
2018-04-01T22:34:18.712Z,37.60
2018-04-01T22:37:00.677Z,37.50
2018-04-01T22:39:28.141Z,38.00
2018-04-01T22:41:55.608Z,38.00
2018-04-01T22:47:19.357Z,37.50
2018-04-01T22:49:54.661Z,38.20
2018-04-01T22:52:26.565Z,39.30
2018-04-01T22:54:54.034Z,39.30
2018-04-01T22:57:21.504Z,37.20
2018-04-01T23:00:07.907Z,38.10
2018-04-01T23:02:35.362Z,37.70
2018-04-01T23:05:26.136Z,39.10
2018-04-01T23:07:53.591Z,39.40
2018-04-01T23:10:21.102Z,39.80
2018-04-01T23:12:51.673Z,40.40
2018-04-01T23:15:19.147Z,41.30
2018-04-01T23:17:52.215Z,39.70
2018-04-01T23:23:32.127Z,42.00
2018-04-01T23:25:59.589Z,41.60
2018-04-01T23:28:27.058Z,42.30
2018-04-01T23:30:54.527Z,43.00
2018-04-01T23:33:21.992Z,42.70
2018-04-01T23:36:10.019Z,42.00
2018-04-01T23:38:37.492Z,42.40
2018-04-01T23:41:17.539Z,41.80
2018-04-01T23:46:45.212Z,41.80
2018-04-01T23:49:13.450Z,42.30
2018-04-01T23:52:00.499Z,42.30
2018-04-01T23:54:27.967Z,42.90
2018-04-01T23:56:56.204Z,42.90
2018-04-01T23:59:23.672Z,42.80
